Time;durP1;ratioP1;P1;durP2;ratioP2;P2;SDS_P1;SDS_P2;PMS_P1;PMS_P2;Temp;Humidity;BMP_temperature;BMP_pressure;BME280_temperature;BME280_humidity;BME280_pressure;Samples;Min_cycle;Max_cycle;Signal;HPM_P1;HPM_P2
2023/08/18 00:01:29;;;;;;;49.72;30.67;;;18.10;99.90;;;;;;5005918;28;20339;-58
2023/08/18 00:03:56;;;;;;;46.38;30.30;;;18.00;99.90;;;;;;5007025;28;20044;-58
2023/08/18 00:06:21;;;;;;;47.95;29.73;;;18.10;99.90;;;;;;5004198;28;20124;-58
2023/08/18 00:08:47;;;;;;;46.80;29.48;;;18.20;99.90;;;;;;5007553;28;20536;-58
2023/08/18 00:11:13;;;;;;;48.42;29.38;;;18.00;99.90;;;;;;5005159;28;20046;-58
2023/08/18 00:13:39;;;;;;;42.40;28.65;;;18.00;99.90;;;;;;5007256;28;20033;-59
2023/08/18 00:16:05;;;;;;;41.38;28.55;;;18.00;99.90;;;;;;5007142;28;20065;-59
2023/08/18 00:18:31;;;;;;;45.47;29.23;;;18.10;99.90;;;;;;5004432;28;20088;-58
2023/08/18 00:20:56;;;;;;;44.28;29.33;;;18.20;99.90;;;;;;5006029;28;20092;-59
2023/08/18 00:23:22;;;;;;;43.65;29.73;;;18.10;99.90;;;;;;5005853;28;20464;-59
2023/08/18 00:25:48;;;;;;;44.33;28.98;;;18.00;99.90;;;;;;5013138;28;20124;-59
2023/08/18 00:28:14;;;;;;;47.47;29.45;;;18.10;99.90;;;;;;5006336;28;20120;-58
2023/08/18 00:30:39;;;;;;;45.97;30.17;;;18.00;99.90;;;;;;5005372;28;20517;-58
2023/08/18 00:33:05;;;;;;;45.28;29.17;;;18.00;99.90;;;;;;5009379;28;20026;-59
2023/08/18 00:35:31;;;;;;;42.65;29.27;;;18.10;99.90;;;;;;5006577;28;20030;-59
2023/08/18 00:37:56;;;;;;;43.42;28.98;;;18.10;99.90;;;;;;5004430;28;20069;-59
2023/08/18 00:40:25;;;;;;;46.95;28.45;;;18.00;99.90;;;;;;4999974;28;20045;-58
2023/08/18 00:42:50;;;;;;;44.17;29.10;;;18.10;99.90;;;;;;5008920;28;20759;-59
2023/08/18 00:45:16;;;;;;;52.25;30.27;;;18.10;99.90;;;;;;5005469;28;20029;-59
2023/08/18 00:47:42;;;;;;;47.97;29.45;;;18.00;99.90;;;;;;5018088;28;20040;-58
2023/08/18 00:50:10;;;;;;;50.13;29.38;;;17.80;99.90;;;;;;5015521;28;20030;-58
2023/08/18 00:52:37;;;;;;;45.92;29.25;;;17.80;99.90;;;;;;5008295;28;20653;-59
2023/08/18 00:55:04;;;;;;;50.92;29.52;;;17.80;99.90;;;;;;5005663;28;20425;-59
2023/08/18 00:57:29;;;;;;;48.53;29.88;;;17.80;99.90;;;;;;5002843;28;20022;-58
2023/08/18 00:59:56;;;;;;;50.80;29.58;;;17.70;99.90;;;;;;5006190;28;20034;-58
2023/08/18 01:02:22;;;;;;;47.90;29.88;;;17.70;99.90;;;;;;5021053;28;20129;-58
2023/08/18 01:04:48;;;;;;;46.15;27.85;;;17.80;99.90;;;;;;5003160;28;20117;-58
2023/08/18 01:07:13;;;;;;;46.35;28.42;;;17.90;99.90;;;;;;5013889;28;20022;-59
2023/08/18 01:09:40;;;;;;;46.22;28.05;;;17.90;99.90;;;;;;5011821;28;20053;-59
2023/08/18 01:12:36;;;;;;;48.40;27.70;;;17.90;99.90;;;;;;5009170;28;20030;-58
2023/08/18 01:15:18;;;;;;;53.28;29.55;;;17.80;99.90;;;;;;5021485;28;20459;-58
2023/08/18 01:17:53;;;;;;;53.45;29.25;;;17.70;99.90;;;;;;5022479;28;20032;-59
2023/08/18 01:20:19;;;;;;;50.90;29.15;;;17.70;99.90;;;;;;5009882;28;20799;-57
2023/08/18 01:22:48;;;;;;;56.22;31.27;;;17.70;99.90;;;;;;5012039;28;20366;-59
2023/08/18 01:25:14;;;;;;;57.20;30.77;;;17.70;99.90;;;;;;5004006;28;20075;-59
2023/08/18 01:27:39;;;;;;;52.13;30.05;;;17.80;99.90;;;;;;5018870;28;20037;-58
2023/08/18 01:30:06;;;;;;;55.45;31.63;;;18.00;99.90;;;;;;5007813;28;20040;-58
2023/08/18 01:32:59;;;;;;;51.35;29.67;;;18.00;99.90;;;;;;5020910;28;20697;-58
2023/08/18 01:35:28;;;;;;;56.80;31.60;;;17.80;99.90;;;;;;5000534;28;20030;-59
2023/08/18 01:37:55;;;;;;;54.25;30.55;;;17.70;99.90;;;;;;4999382;28;20100;-58
2023/08/18 01:40:23;;;;;;;53.45;30.70;;;17.70;99.90;;;;;;5008136;28;20046;-58
2023/08/18 01:42:51;;;;;;;57.88;31.50;;;17.70;99.90;;;;;;5024534;28;20028;-59
2023/08/18 01:45:16;;;;;;;61.88;32.90;;;17.70;99.90;;;;;;5012652;28;20694;-59
2023/08/18 01:47:42;;;;;;;54.03;31.40;;;17.70;99.90;;;;;;5012060;28;20040;-59
2023/08/18 01:50:09;;;;;;;56.80;32.53;;;17.70;99.90;;;;;;4998334;28;20034;-59
2023/08/18 01:52:34;;;;;;;57.05;30.67;;;17.80;99.90;;;;;;5007389;28;20026;-58
2023/08/18 01:55:00;;;;;;;51.70;32.03;;;17.90;99.90;;;;;;5006376;28;20064;-59
2023/08/18 01:57:26;;;;;;;60.97;34.13;;;18.10;99.90;;;;;;5006437;28;20052;-58
2023/08/18 01:59:51;;;;;;;53.28;32.65;;;17.80;99.90;;;;;;5021071;28;20030;-59
2023/08/18 02:02:17;;;;;;;55.50;32.15;;;17.80;99.90;;;;;;5015658;28;20536;-59
2023/08/18 02:04:42;;;;;;;58.75;36.47;;;17.90;99.90;;;;;;5010484;28;20537;-59
2023/08/18 02:07:08;;;;;;;61.90;38.45;;;17.80;99.90;;;;;;4995953;28;20025;-58
2023/08/18 02:09:34;;;;;;;64.93;40.25;;;17.80;99.90;;;;;;5001148;28;20042;-59
2023/08/18 02:11:59;;;;;;;66.72;39.63;;;17.70;99.90;;;;;;5017333;28;20025;-58
2023/08/18 02:14:25;;;;;;;67.43;40.15;;;17.70;99.90;;;;;;5024427;28;20056;-60
2023/08/18 02:16:50;;;;;;;70.72;41.13;;;17.70;99.90;;;;;;5018001;28;20128;-58
2023/08/18 02:19:16;;;;;;;70.35;41.78;;;17.60;99.90;;;;;;5002719;28;20115;-58
2023/08/18 02:21:41;;;;;;;70.78;41.65;;;17.60;99.90;;;;;;4999666;28;20498;-58
2023/08/18 02:24:08;;;;;;;73.93;41.42;;;17.60;99.90;;;;;;5017881;28;20030;-61
2023/08/18 02:26:33;;;;;;;70.18;41.15;;;17.60;99.90;;;;;;5024756;28;20507;-59
2023/08/18 02:28:59;;;;;;;68.72;40.47;;;17.60;99.90;;;;;;5026080;28;20361;-58
2023/08/18 02:31:24;;;;;;;63.95;41.03;;;17.60;99.90;;;;;;5012121;28;20058;-58
2023/08/18 02:33:50;;;;;;;68.00;43.22;;;17.50;99.90;;;;;;5013097;28;20046;-57
2023/08/18 02:36:15;;;;;;;70.00;41.78;;;17.50;99.90;;;;;;5007933;28;20088;-58
2023/08/18 02:38:41;;;;;;;71.03;44.00;;;17.50;99.90;;;;;;5022211;28;20907;-58
2023/08/18 02:41:07;;;;;;;69.18;42.42;;;17.50;99.90;;;;;;5006824;28;20440;-58
2023/08/18 02:43:33;;;;;;;71.32;42.65;;;17.50;99.90;;;;;;5021805;28;20033;-57
2023/08/18 02:46:02;;;;;;;69.82;41.97;;;17.50;99.90;;;;;;5027647;28;20029;-59
2023/08/18 02:48:29;;;;;;;68.78;42.50;;;17.70;99.90;;;;;;5027637;28;20037;-59
2023/08/18 02:51:05;;;;;;;67.80;42.10;;;17.80;99.90;;;;;;5018263;28;20034;-58
2023/08/18 02:53:31;;;;;;;62.70;39.30;;;17.90;99.90;;;;;;5014860;28;20034;-57
2023/08/18 02:56:00;;;;;;;59.95;36.50;;;17.60;99.90;;;;;;5005709;28;20077;-58
2023/08/18 02:58:30;;;;;;;57.55;35.30;;;17.60;99.90;;;;;;5006415;28;20038;-57
2023/08/18 03:01:01;;;;;;;57.88;36.63;;;17.70;99.90;;;;;;5006088;28;20053;-57
2023/08/18 03:03:27;;;;;;;61.20;34.63;;;17.70;99.90;;;;;;5005977;28;20080;-57
2023/08/18 03:05:53;;;;;;;60.33;34.95;;;17.70;99.90;;;;;;5007617;28;20153;-57
2023/08/18 03:08:18;;;;;;;55.13;34.00;;;17.90;99.90;;;;;;5004819;28;20034;-58
2023/08/18 03:10:52;;;;;;;50.40;30.48;;;17.90;99.90;;;;;;5011104;28;20033;-58
2023/08/18 03:13:18;;;;;;;53.45;31.00;;;17.80;99.90;;;;;;5019590;28;20674;-58
2023/08/18 03:15:44;;;;;;;51.97;30.42;;;17.80;99.90;;;;;;5006138;28;20049;-57
2023/08/18 03:18:09;;;;;;;44.53;28.23;;;17.80;99.90;;;;;;5005428;28;20189;-58
2023/08/18 03:20:35;;;;;;;47.45;28.20;;;17.80;99.90;;;;;;5004199;28;20029;-58
2023/08/18 03:23:01;;;;;;;47.22;29.73;;;17.70;99.90;;;;;;5005919;28;20029;-57
2023/08/18 03:25:26;;;;;;;50.03;31.00;;;17.70;99.90;;;;;;5018220;28;20034;-57
2023/08/18 03:27:52;;;;;;;47.88;29.45;;;17.60;99.90;;;;;;5013290;28;20062;-59
2023/08/18 03:30:17;;;;;;;53.42;31.27;;;17.60;99.90;;;;;;5009722;28;20034;-59
2023/08/18 03:32:43;;;;;;;49.30;31.50;;;17.70;99.90;;;;;;5010260;28;20042;-58
2023/08/18 03:35:09;;;;;;;55.28;31.67;;;17.80;99.90;;;;;;5005933;28;20026;-58
2023/08/18 03:37:34;;;;;;;51.35;32.50;;;17.90;99.90;;;;;;5006726;28;20030;-57
2023/08/18 03:40:03;;;;;;;54.28;31.17;;;17.80;99.90;;;;;;5007217;28;20398;-58
2023/08/18 03:42:28;;;;;;;52.03;31.10;;;17.90;99.90;;;;;;5018382;28;20030;-57
2023/08/18 03:44:54;;;;;;;51.97;32.67;;;17.90;99.90;;;;;;5026212;28;20523;-57
2023/08/18 03:47:19;;;;;;;56.75;33.03;;;18.00;99.90;;;;;;5017359;28;20395;-57
2023/08/18 03:49:45;;;;;;;52.95;31.30;;;18.20;99.90;;;;;;5018993;28;20059;-58
2023/08/18 03:52:10;;;;;;;54.63;32.55;;;18.10;99.90;;;;;;5026056;28;20033;-58
2023/08/18 03:54:37;;;;;;;49.22;32.20;;;17.80;99.90;;;;;;5026661;28;20534;-59
2023/08/18 03:57:03;;;;;;;46.45;30.08;;;17.80;99.90;;;;;;4997531;28;20037;-58
2023/08/18 03:59:28;;;;;;;50.67;31.27;;;17.80;99.90;;;;;;5008426;28;20045;-59
2023/08/18 04:01:54;;;;;;;49.53;30.63;;;18.00;99.90;;;;;;5005632;28;20038;-59
2023/08/18 04:04:20;;;;;;;49.05;31.58;;;18.10;99.90;;;;;;5020097;28;20038;-59
2023/08/18 04:06:45;;;;;;;51.38;32.05;;;18.10;99.90;;;;;;5006507;28;20069;-59
2023/08/18 04:09:15;;;;;;;55.88;32.55;;;18.00;99.90;;;;;;5005770;28;20056;-58
2023/08/18 04:11:42;;;;;;;56.97;32.00;;;18.00;99.90;;;;;;5007711;28;20041;-59
2023/08/18 04:14:08;;;;;;;54.03;32.63;;;18.00;99.90;;;;;;5007531;28;20037;-59
2023/08/18 04:16:34;;;;;;;56.55;33.65;;;18.00;99.90;;;;;;5007771;28;20060;-58
2023/08/18 04:19:06;;;;;;;59.90;35.88;;;17.90;99.90;;;;;;5009734;28;20069;-59
2023/08/18 04:21:32;;;;;;;60.42;33.70;;;17.80;99.90;;;;;;5004543;28;21207;-59
2023/08/18 04:23:58;;;;;;;58.33;33.78;;;17.80;99.90;;;;;;5004110;28;20128;-59
2023/08/18 04:26:24;;;;;;;59.30;32.95;;;17.80;99.90;;;;;;5003895;28;20026;-59
2023/08/18 04:28:53;;;;;;;56.78;32.33;;;17.80;99.90;;;;;;5010762;28;20048;-60
2023/08/18 04:31:18;;;;;;;62.92;32.85;;;17.80;99.90;;;;;;5006070;28;20094;-59
2023/08/18 04:33:44;;;;;;;58.08;33.33;;;17.80;99.90;;;;;;5001705;28;20485;-59
2023/08/18 04:36:09;;;;;;;58.17;33.72;;;17.80;99.90;;;;;;5005795;28;20037;-59
2023/08/18 04:38:35;;;;;;;67.15;33.30;;;17.80;99.90;;;;;;5021012;28;20132;-59
2023/08/18 04:41:02;;;;;;;59.72;33.20;;;18.00;99.90;;;;;;5020487;28;20033;-60
2023/08/18 04:43:28;;;;;;;58.67;33.75;;;18.10;99.90;;;;;;5010164;28;20494;-59
2023/08/18 04:45:54;;;;;;;57.90;31.67;;;18.00;99.90;;;;;;4998525;28;20042;-59
2023/08/18 04:48:21;;;;;;;58.22;31.77;;;18.00;99.90;;;;;;5002166;28;20445;-59
2023/08/18 04:50:46;;;;;;;67.05;35.38;;;17.90;99.90;;;;;;5010516;28;20441;-59
2023/08/18 04:53:12;;;;;;;61.67;34.35;;;18.00;99.90;;;;;;5004756;28;20025;-57
2023/08/18 04:55:39;;;;;;;67.20;35.03;;;17.90;99.90;;;;;;5004612;28;20030;-59
2023/08/18 04:58:13;;;;;;;69.32;34.78;;;17.90;99.90;;;;;;5008795;28;20033;-60
2023/08/18 05:00:40;;;;;;;62.38;34.13;;;17.90;99.90;;;;;;5018506;28;20045;-59
2023/08/18 05:03:06;;;;;;;65.00;34.90;;;18.00;99.90;;;;;;4993371;28;20042;-59
2023/08/18 05:05:34;;;;;;;67.43;35.78;;;17.80;99.90;;;;;;5011674;28;20040;-59
2023/08/18 05:08:00;;;;;;;73.22;37.08;;;17.80;99.90;;;;;;5032842;28;20041;-60
2023/08/18 05:10:26;;;;;;;72.40;36.20;;;17.80;99.90;;;;;;5009136;28;20033;-59
2023/08/18 05:12:51;;;;;;;69.72;34.58;;;17.70;99.90;;;;;;5003997;28;20042;-59
2023/08/18 05:15:17;;;;;;;73.43;36.35;;;17.70;99.90;;;;;;5001368;28;20430;-59
2023/08/18 05:17:42;;;;;;;71.35;36.05;;;17.80;99.90;;;;;;5003989;28;20061;-59
2023/08/18 05:20:11;;;;;;;72.93;36.38;;;17.70;99.90;;;;;;5004458;28;20040;-59
2023/08/18 05:22:36;;;;;;;75.53;38.55;;;17.80;99.90;;;;;;5003699;28;20041;-58
2023/08/18 05:25:02;;;;;;;70.22;37.17;;;17.80;99.90;;;;;;5004352;28;20025;-58
2023/08/18 05:27:28;;;;;;;73.07;37.55;;;17.70;99.90;;;;;;5004652;28;20149;-58
2023/08/18 05:29:53;;;;;;;81.85;38.40;;;17.70;99.90;;;;;;5003892;28;20046;-58
2023/08/18 05:32:19;;;;;;;78.85;38.75;;;17.80;99.90;;;;;;5004301;28;20172;-58
2023/08/18 05:34:44;;;;;;;74.97;36.58;;;17.90;99.90;;;;;;5003712;28;20030;-58
2023/08/18 05:37:11;;;;;;;75.70;36.88;;;17.90;99.90;;;;;;5001921;28;20087;-58
2023/08/18 05:39:36;;;;;;;78.72;37.53;;;17.80;99.90;;;;;;5004498;28;20037;-58
2023/08/18 05:42:02;;;;;;;78.78;37.63;;;17.80;99.90;;;;;;5006242;28;20079;-58
2023/08/18 05:44:27;;;;;;;79.68;36.65;;;17.80;99.90;;;;;;5006450;28;20111;-58
2023/08/18 05:46:53;;;;;;;78.10;35.50;;;17.80;99.90;;;;;;5007718;28;20262;-59
2023/08/18 05:49:19;;;;;;;77.20;35.58;;;17.90;99.90;;;;;;5004278;28;20038;-58
2023/08/18 05:51:45;;;;;;;78.50;36.45;;;17.90;99.90;;;;;;5002949;28;20034;-58
2023/08/18 05:54:10;;;;;;;71.75;37.72;;;17.80;99.90;;;;;;5015717;28;20045;-58
2023/08/18 05:56:36;;;;;;;70.00;36.63;;;17.80;99.90;;;;;;5012021;28;20099;-58
2023/08/18 05:59:04;;;;;;;76.13;38.80;;;17.80;99.90;;;;;;5005588;28;20069;-58
2023/08/18 06:01:29;;;;;;;74.05;36.83;;;17.70;99.90;;;;;;5001993;28;20453;-58
2023/08/18 06:03:55;;;;;;;74.65;38.05;;;17.80;99.90;;;;;;4997427;28;20041;-57
2023/08/18 06:06:21;;;;;;;82.45;42.67;;;17.70;99.90;;;;;;5004477;28;20045;-57
2023/08/18 06:08:46;;;;;;;79.22;40.47;;;17.60;99.90;;;;;;5005988;28;20044;-59
2023/08/18 06:11:12;;;;;;;70.47;38.13;;;17.80;99.90;;;;;;5008895;28;20180;-57
2023/08/18 06:13:38;;;;;;;74.50;38.63;;;17.90;99.90;;;;;;4994759;28;20415;-59
2023/08/18 06:16:04;;;;;;;75.05;40.97;;;18.00;99.90;;;;;;4994947;28;20133;-58
2023/08/18 06:18:30;;;;;;;75.13;40.90;;;18.00;99.90;;;;;;4997756;28;20765;-59
2023/08/18 06:20:56;;;;;;;80.15;44.40;;;17.90;99.90;;;;;;5017710;28;20099;-58
2023/08/18 06:23:22;;;;;;;72.43;41.90;;;17.90;99.90;;;;;;5021891;28;20057;-58
2023/08/18 06:25:47;;;;;;;103.60;68.50;;;18.00;99.90;;;;;;5024097;28;20029;-59
2023/08/18 06:28:13;;;;;;;75.72;39.42;;;18.00;99.90;;;;;;5011298;28;20110;-58
2023/08/18 06:30:38;;;;;;;71.53;39.97;;;18.30;99.90;;;;;;4991328;28;20033;-60
2023/08/18 06:33:04;;;;;;;68.30;38.25;;;18.50;99.90;;;;;;4995587;28;20030;-59
2023/08/18 06:35:29;;;;;;;65.00;37.25;;;18.30;99.90;;;;;;4999704;28;20038;-59
2023/08/18 06:37:55;;;;;;;69.28;39.72;;;18.10;99.90;;;;;;5003654;28;20061;-59
2023/08/18 06:40:21;;;;;;;67.18;39.38;;;18.30;99.90;;;;;;4997046;28;20386;-59
2023/08/18 06:42:46;;;;;;;77.85;41.85;;;18.20;99.90;;;;;;4999957;28;20042;-60
2023/08/18 06:45:12;;;;;;;73.78;40.25;;;18.00;99.90;;;;;;5007123;28;20104;-59
2023/08/18 06:47:37;;;;;;;69.20;38.17;;;18.00;99.90;;;;;;5009145;28;20144;-59
2023/08/18 06:50:05;;;;;;;59.65;35.20;;;17.90;99.90;;;;;;5000186;28;20041;-60
2023/08/18 06:52:32;;;;;;;55.20;31.98;;;18.10;99.90;;;;;;4995891;28;20026;-59
2023/08/18 06:54:58;;;;;;;56.78;34.75;;;18.30;99.90;;;;;;4999914;28;20457;-62
2023/08/18 06:57:25;;;;;;;57.00;32.90;;;18.40;99.90;;;;;;5004477;28;20053;-59
2023/08/18 06:59:51;;;;;;;60.97;33.95;;;18.50;99.90;;;;;;4998719;28;20030;-59
2023/08/18 07:02:17;;;;;;;60.63;34.70;;;18.30;99.90;;;;;;5001392;28;20533;-58
2023/08/18 07:04:42;;;;;;;60.25;33.72;;;18.40;99.90;;;;;;5007559;28;20034;-59
2023/08/18 07:07:08;;;;;;;61.10;34.38;;;18.00;99.90;;;;;;4999189;28;20034;-59
2023/08/18 07:09:33;;;;;;;58.22;34.05;;;18.20;99.90;;;;;;5001004;28;20405;-58
2023/08/18 07:11:59;;;;;;;59.35;33.90;;;18.20;99.90;;;;;;4999663;28;20049;-59
2023/08/18 07:14:25;;;;;;;62.13;32.63;;;18.30;99.90;;;;;;5004130;28;20073;-59
2023/08/18 07:16:50;;;;;;;51.42;30.10;;;18.10;99.90;;;;;;5007292;28;20441;-59
2023/08/18 07:19:16;;;;;;;52.03;31.10;;;18.20;99.90;;;;;;5002240;28;20041;-58
2023/08/18 07:21:42;;;;;;;52.33;32.35;;;18.40;99.90;;;;;;5003821;28;20524;-59
2023/08/18 07:24:08;;;;;;;52.95;31.50;;;18.40;99.90;;;;;;5007577;28;20037;-58
2023/08/18 07:26:33;;;;;;;58.63;33.03;;;18.40;99.90;;;;;;5006566;28;20046;-59
2023/08/18 07:28:59;;;;;;;57.42;33.97;;;18.30;99.90;;;;;;5011144;28;20046;-58
2023/08/18 07:31:24;;;;;;;56.75;32.83;;;18.30;99.90;;;;;;5009788;28;20045;-59
2023/08/18 07:33:51;;;;;;;57.53;32.63;;;18.40;99.90;;;;;;5006278;28;20048;-59
2023/08/18 07:36:17;;;;;;;54.60;32.15;;;18.50;99.90;;;;;;5014348;28;20038;-60
2023/08/18 07:38:42;;;;;;;63.17;35.03;;;18.70;99.90;;;;;;5005258;28;20038;-63
2023/08/18 07:41:08;;;;;;;58.35;34.90;;;18.80;99.90;;;;;;5005488;28;20052;-59
2023/08/18 07:43:34;;;;;;;62.88;36.33;;;18.70;99.90;;;;;;4997928;28;20046;-59
2023/08/18 07:45:59;;;;;;;61.22;35.58;;;18.70;99.90;;;;;;4994144;28;20131;-59
2023/08/18 07:48:25;;;;;;;59.47;35.33;;;18.60;99.90;;;;;;5000997;28;20121;-60
2023/08/18 07:50:51;;;;;;;60.63;34.55;;;18.60;99.90;;;;;;5002888;28;20034;-60
2023/08/18 07:53:16;;;;;;;60.65;35.40;;;18.60;99.90;;;;;;4994541;28;20399;-60
2023/08/18 07:55:42;;;;;;;57.53;35.53;;;18.90;99.90;;;;;;5001473;28;20706;-59
2023/08/18 07:58:08;;;;;;;61.10;35.30;;;19.40;99.90;;;;;;5003230;28;20034;-60
2023/08/18 08:00:33;;;;;;;58.30;34.70;;;18.80;99.90;;;;;;5000003;28;20030;-60
2023/08/18 08:02:59;;;;;;;56.20;33.42;;;18.80;99.90;;;;;;5000605;28;20034;-60
2023/08/18 08:05:25;;;;;;;58.42;35.85;;;18.80;99.90;;;;;;5009653;28;20065;-60
2023/08/18 08:07:51;;;;;;;56.08;35.05;;;19.00;99.90;;;;;;5006828;28;20030;-58
2023/08/18 08:10:17;;;;;;;49.45;32.35;;;19.00;99.90;;;;;;5013026;28;20537;-59
2023/08/18 08:12:43;;;;;;;55.17;32.95;;;18.90;99.90;;;;;;5004382;28;20026;-59
2023/08/18 08:15:11;;;;;;;51.92;32.35;;;18.90;99.90;;;;;;5003728;28;20108;-59
2023/08/18 08:17:38;;;;;;;52.83;32.05;;;18.80;99.90;;;;;;5009582;28;20034;-59
2023/08/18 08:20:10;;;;;;;43.33;29.55;;;18.90;99.90;;;;;;5016332;28;20029;-59
2023/08/18 08:22:36;;;;;;;47.63;30.33;;;19.00;99.90;;;;;;5012627;28;20494;-59
2023/08/18 08:25:01;;;;;;;49.20;30.58;;;19.30;99.90;;;;;;5011899;28;20151;-59
2023/08/18 08:27:27;;;;;;;48.95;31.25;;;19.40;99.90;;;;;;5013173;28;20063;-59
2023/08/18 08:29:52;;;;;;;47.17;30.30;;;19.40;99.90;;;;;;5005056;28;20041;-59
2023/08/18 08:32:18;;;;;;;46.08;31.10;;;19.60;99.90;;;;;;4996524;28;20566;-60
2023/08/18 08:34:50;;;;;;;42.25;30.33;;;19.60;99.90;;;;;;5000968;28;20055;-59
2023/08/18 08:37:17;;;;;;;40.58;28.67;;;19.60;99.90;;;;;;5010798;28;20064;-59
2023/08/18 08:39:43;;;;;;;42.85;29.23;;;19.70;99.90;;;;;;5006680;28;20049;-59
2023/08/18 08:42:09;;;;;;;36.58;27.48;;;19.80;99.90;;;;;;4999785;28;20030;-60
2023/08/18 08:44:35;;;;;;;40.58;27.33;;;20.40;99.90;;;;;;5002988;28;20041;-60
2023/08/18 08:47:01;;;;;;;40.58;27.83;;;20.40;99.90;;;;;;4997108;28;20149;-59
2023/08/18 08:49:31;;;;;;;36.08;26.85;;;20.10;99.90;;;;;;5010690;28;20497;-59
2023/08/18 08:52:01;;;;;;;36.58;27.73;;;20.00;99.90;;;;;;5015592;28;20104;-59
2023/08/18 08:54:29;;;;;;;40.83;28.40;;;20.10;99.90;;;;;;5013713;28;20685;-59
2023/08/18 08:56:56;;;;;;;42.67;28.60;;;20.20;99.90;;;;;;5016081;28;20030;-59
2023/08/18 08:59:22;;;;;;;40.92;28.25;;;20.70;99.90;;;;;;5002601;28;20100;-60
2023/08/18 09:01:48;;;;;;;38.83;28.55;;;20.50;99.90;;;;;;5003721;28;20041;-60
2023/08/18 09:04:15;;;;;;;49.85;31.15;;;20.50;99.90;;;;;;5010412;28;20146;-59
2023/08/18 09:06:41;;;;;;;55.30;36.15;;;20.20;99.90;;;;;;5012195;28;20720;-60
2023/08/18 09:09:07;;;;;;;44.53;31.60;;;20.30;99.90;;;;;;5016116;28;20226;-59
2023/08/18 09:11:46;;;;;;;39.25;29.60;;;20.30;99.90;;;;;;5010991;28;20041;-60
2023/08/18 09:14:15;;;;;;;39.95;29.95;;;20.60;99.90;;;;;;5014029;28;20034;-60
2023/08/18 09:16:44;;;;;;;37.88;27.77;;;20.70;99.90;;;;;;5010312;28;20726;-59
2023/08/18 09:19:14;;;;;;;32.75;24.38;;;20.70;99.90;;;;;;5013332;28;20057;-60
2023/08/18 09:21:40;;;;;;;35.05;24.13;;;21.00;99.90;;;;;;5006244;28;20518;-60
2023/08/18 09:24:06;;;;;;;30.27;23.00;;;21.30;99.90;;;;;;5004732;28;20048;-59
2023/08/18 09:26:32;;;;;;;33.65;23.90;;;21.20;99.90;;;;;;5012736;28;20045;-59
2023/08/18 09:28:57;;;;;;;31.35;23.13;;;21.60;99.90;;;;;;5011616;28;20049;-59
2023/08/18 09:31:23;;;;;;;29.98;23.92;;;21.30;99.90;;;;;;4999355;28;20493;-59
2023/08/18 09:33:51;;;;;;;30.25;23.55;;;21.10;99.90;;;;;;5000961;28;20025;-60
2023/08/18 09:36:18;;;;;;;29.85;23.02;;;21.00;99.90;;;;;;5011445;28;20034;-60
2023/08/18 09:38:44;;;;;;;28.17;21.55;;;21.00;99.90;;;;;;5006579;28;20045;-60
2023/08/18 09:41:10;;;;;;;29.00;22.90;;;21.10;99.90;;;;;;5002413;28;20041;-60
2023/08/18 09:43:37;;;;;;;30.83;22.75;;;21.10;99.90;;;;;;5008363;28;20034;-60
2023/08/18 09:46:05;;;;;;;28.05;21.90;;;21.20;99.90;;;;;;5011486;28;20041;-59
2023/08/18 09:48:37;;;;;;;28.25;21.65;;;21.40;99.90;;;;;;4998411;28;20046;-60
2023/08/18 09:51:07;;;;;;;28.98;22.73;;;21.60;99.90;;;;;;4988931;28;20561;-59
2023/08/18 09:53:33;;;;;;;28.50;21.45;;;21.70;99.90;;;;;;5002086;28;20116;-60
2023/08/18 09:56:04;;;;;;;29.40;23.30;;;21.80;99.90;;;;;;5008723;28;20136;-60
2023/08/18 09:58:47;;;;;;;28.90;22.42;;;21.50;99.90;;;;;;4998183;28;20529;-61
2023/08/18 10:01:13;;;;;;;;;;;21.60;99.90;;;;;;4998180;28;20080;-59
2023/08/18 10:03:41;;;;;;;30.73;23.13;;;21.50;99.90;;;;;;5007886;28;19914;-60
2023/08/18 10:06:07;;;;;;;27.85;23.00;;;21.70;99.90;;;;;;5010518;28;20034;-55
2023/08/18 10:08:34;;;;;;;28.40;21.58;;;22.00;99.90;;;;;;4993049;28;20434;-57
2023/08/18 10:11:03;;;;;;;26.50;21.73;;;22.40;99.90;;;;;;5002399;28;20042;-57
2023/08/18 10:13:33;;;;;;;26.70;20.52;;;22.30;99.90;;;;;;5001485;28;20038;-58
2023/08/18 10:16:01;;;;;;;24.92;20.80;;;22.40;99.90;;;;;;5005618;28;20038;-57
2023/08/18 10:18:27;;;;;;;26.25;19.98;;;22.60;99.90;;;;;;4994697;28;20034;-56
2023/08/18 10:20:55;;;;;;;24.35;18.60;;;22.80;99.90;;;;;;4997286;28;20033;-56
2023/08/18 10:23:24;;;;;;;21.33;18.48;;;22.70;99.90;;;;;;4995763;28;20034;-56
2023/08/18 10:25:52;;;;;;;24.85;18.90;;;22.80;99.90;;;;;;5011179;28;20061;-56
2023/08/18 10:28:22;;;;;;;24.30;20.13;;;23.00;99.90;;;;;;5010173;28;20128;-55
2023/08/18 10:31:07;;;;;;;24.17;19.30;;;22.80;99.90;;;;;;5013745;28;20125;-57
2023/08/18 10:33:38;;;;;;;23.88;19.05;;;22.80;99.90;;;;;;5013432;28;20037;-56
2023/08/18 10:36:05;;;;;;;26.20;20.65;;;23.00;99.90;;;;;;5011167;28;20037;-56
2023/08/18 10:38:33;;;;;;;24.70;20.52;;;22.60;99.90;;;;;;5007897;28;20443;-57
2023/08/18 10:40:59;;;;;;;21.08;17.92;;;22.50;99.90;;;;;;5011077;28;20038;-57
2023/08/18 10:43:27;;;;;;;25.20;18.08;;;22.70;99.90;;;;;;5015187;28;20056;-57
2023/08/18 10:45:59;;;;;;;22.08;17.65;;;22.90;99.90;;;;;;5017812;28;20556;-57
2023/08/18 10:48:30;;;;;;;23.40;18.70;;;23.00;99.90;;;;;;5006030;28;20050;-57
2023/08/18 10:50:55;;;;;;;21.92;17.75;;;23.00;99.90;;;;;;5005532;28;20045;-57
2023/08/18 10:53:21;;;;;;;23.17;19.85;;;22.90;99.90;;;;;;5007908;28;20042;-57
2023/08/18 10:55:46;;;;;;;21.20;18.52;;;22.90;99.90;;;;;;5019784;28;20568;-56
2023/08/18 10:58:14;;;;;;;22.42;17.63;;;22.90;99.90;;;;;;5002121;28;20386;-56
2023/08/18 11:00:41;;;;;;;20.38;17.77;;;23.00;99.90;;;;;;5005415;28;20038;-56
2023/08/18 11:03:09;;;;;;;21.27;17.60;;;23.20;99.90;;;;;;5001831;28;20093;-57
2023/08/18 11:05:35;;;;;;;22.00;19.10;;;23.20;99.90;;;;;;5006707;28;20033;-56
2023/08/18 11:08:01;;;;;;;22.30;18.42;;;23.30;99.90;;;;;;5006358;28;20037;-56
2023/08/18 11:10:27;;;;;;;21.73;18.63;;;23.40;99.90;;;;;;5011362;28;20091;-57
2023/08/18 11:12:56;;;;;;;23.35;18.27;;;23.20;99.90;;;;;;5027051;28;20485;-58
2023/08/18 11:15:23;;;;;;;28.60;19.55;;;23.20;99.90;;;;;;5020717;28;20186;-58
2023/08/18 11:17:49;;;;;;;21.85;18.02;;;23.30;99.90;;;;;;4997954;28;20034;-55
2023/08/18 11:20:16;;;;;;;25.33;18.27;;;23.50;99.90;;;;;;5008767;28;20041;-57
2023/08/18 11:22:45;;;;;;;26.58;17.27;;;23.50;99.90;;;;;;5005763;28;20038;-55
2023/08/18 11:25:11;;;;;;;28.08;20.25;;;23.40;99.90;;;;;;5004931;28;20454;-57
2023/08/18 11:27:40;;;;;;;25.35;18.85;;;23.40;99.90;;;;;;5010149;28;20029;-57
2023/08/18 11:30:10;;;;;;;27.80;20.02;;;23.60;99.90;;;;;;5008691;28;20084;-57
2023/08/18 11:32:37;;;;;;;26.02;19.48;;;23.40;99.90;;;;;;5003643;28;20049;-57
2023/08/18 11:35:05;;;;;;;22.55;18.40;;;23.50;99.90;;;;;;5002241;28;20125;-56
2023/08/18 11:37:30;;;;;;;19.70;16.50;;;23.50;99.90;;;;;;4998485;28;20042;-57
2023/08/18 11:39:56;;;;;;;25.35;19.00;;;23.70;99.90;;;;;;5006235;28;20540;-57
2023/08/18 11:42:22;;;;;;;20.67;17.27;;;23.60;99.90;;;;;;5001759;28;20046;-57
2023/08/18 11:44:50;;;;;;;21.00;16.33;;;23.80;99.90;;;;;;5013652;28;20030;-57
2023/08/18 11:47:17;;;;;;;26.20;18.48;;;23.80;99.90;;;;;;5006154;28;20215;-58
2023/08/18 11:49:44;;;;;;;23.48;17.63;;;24.00;99.90;;;;;;5008717;28;20663;-56
2023/08/18 11:52:10;;;;;;;27.52;20.05;;;24.00;99.90;;;;;;5011854;28;20030;-57
2023/08/18 11:54:38;;;;;;;20.02;16.60;;;23.90;99.90;;;;;;5013315;28;20045;-57
2023/08/18 11:57:05;;;;;;;26.60;18.48;;;23.90;99.90;;;;;;5011314;28;20038;-58
2023/08/18 11:59:32;;;;;;;24.17;17.42;;;24.00;99.90;;;;;;5014713;28;20429;-57
2023/08/18 12:02:04;;;;;;;25.85;19.10;;;24.00;99.90;;;;;;5012133;28;20136;-57
2023/08/18 12:04:31;;;;;;;22.13;19.33;;;24.00;99.90;;;;;;5014031;28;20037;-57
2023/08/18 12:06:57;;;;;;;24.30;18.60;;;24.10;99.90;;;;;;5008105;28;20038;-56
2023/08/18 12:09:23;;;;;;;25.38;19.40;;;23.90;99.90;;;;;;5003374;28;20514;-57
2023/08/18 12:11:50;;;;;;;28.55;20.38;;;23.90;99.90;;;;;;5018453;28;20068;-57
2023/08/18 12:14:16;;;;;;;22.33;16.60;;;24.00;99.90;;;;;;5011251;28;20033;-56
2023/08/18 12:16:42;;;;;;;20.98;17.40;;;24.20;99.90;;;;;;5012798;28;20037;-56
2023/08/18 12:19:08;;;;;;;24.27;19.08;;;24.10;99.90;;;;;;5007885;28;20065;-56
2023/08/18 12:21:38;;;;;;;24.30;19.30;;;24.20;99.90;;;;;;5012110;28;20033;-56
2023/08/18 12:24:05;;;;;;;22.13;17.55;;;24.20;99.90;;;;;;5011656;28;20124;-57
2023/08/18 12:26:32;;;;;;;22.58;18.65;;;24.20;99.90;;;;;;5008706;28;20125;-56